createdAt,value
2022-09-06T00:02:12.655Z,74.44
2022-09-06T00:04:39.022Z,74.50
2022-09-06T00:07:05.422Z,74.59
2022-09-06T00:09:31.785Z,74.80
2022-09-06T00:11:58.171Z,74.83
2022-09-06T00:14:24.569Z,74.62
2022-09-06T00:16:50.932Z,74.31
2022-09-06T00:19:17.357Z,73.86
2022-09-06T00:21:43.771Z,73.98
2022-09-06T00:24:10.186Z,74.14
2022-09-06T00:26:36.623Z,74.13
2022-09-06T00:29:02.987Z,74.09
2022-09-06T00:31:29.465Z,74.10
2022-09-06T00:33:55.781Z,74.45
2022-09-06T00:36:22.175Z,74.29
2022-09-06T00:38:48.540Z,74.45
2022-09-06T00:41:15.018Z,74.73
2022-09-06T00:43:41.388Z,74.99
2022-09-06T00:46:07.855Z,75.03
2022-09-06T00:48:34.214Z,75.09
2022-09-06T00:51:00.571Z,75.18
2022-09-06T00:53:27.126Z,75.12
2022-09-06T00:55:53.463Z,75.44
2022-09-06T00:58:20.015Z,75.38
2022-09-06T01:00:46.334Z,75.64
2022-09-06T01:03:12.723Z,75.84
2022-09-06T01:05:39.077Z,76.08
2022-09-06T01:08:05.505Z,76.24
2022-09-06T01:10:31.905Z,76.07
2022-09-06T01:12:58.339Z,76.07
2022-09-06T01:15:24.794Z,76.27
2022-09-06T01:17:51.105Z,76.34
2022-09-06T01:20:17.463Z,76.36
2022-09-06T01:22:43.829Z,76.30
2022-09-06T01:25:10.225Z,76.21
2022-09-06T01:27:36.594Z,76.09
2022-09-06T01:30:02.954Z,76.07
2022-09-06T01:32:29.357Z,76.38
2022-09-06T01:34:55.826Z,76.56
2022-09-06T01:37:22.193Z,76.83
2022-09-06T01:39:48.685Z,76.88
2022-09-06T01:42:14.961Z,76.69
2022-09-06T01:44:41.335Z,76.72
2022-09-06T01:47:07.789Z,76.54
2022-09-06T01:49:34.152Z,76.86
2022-09-06T01:52:00.552Z,76.91
2022-09-06T01:54:26.977Z,77.06
2022-09-06T01:56:53.345Z,76.95
2022-09-06T01:59:19.709Z,76.92
2022-09-06T02:01:46.198Z,76.85
2022-09-06T02:04:12.510Z,77.03
2022-09-06T02:06:38.938Z,76.79
2022-09-06T02:09:05.308Z,76.94
2022-09-06T02:11:31.705Z,77.52
2022-09-06T02:13:58.141Z,77.60
2022-09-06T02:16:24.595Z,77.74
2022-09-06T02:18:50.934Z,77.67
2022-09-06T02:21:17.340Z,77.60
2022-09-06T02:23:43.750Z,77.51
2022-09-06T02:26:10.206Z,77.76
2022-09-06T02:28:36.637Z,77.92
2022-09-06T02:31:03.153Z,77.90
2022-09-06T02:33:29.410Z,78.02
2022-09-06T02:35:55.780Z,77.98
2022-09-06T02:38:22.165Z,77.68
2022-09-06T02:40:48.552Z,77.29
2022-09-06T02:43:14.935Z,77.42
2022-09-06T02:45:41.318Z,77.30
2022-09-06T02:48:07.668Z,76.43
2022-09-06T02:50:34.126Z,76.67
2022-09-06T02:53:00.559Z,76.10
2022-09-06T02:55:26.986Z,75.53
2022-09-06T02:57:53.432Z,75.31
2022-09-06T03:00:19.819Z,75.37
2022-09-06T03:02:46.238Z,76.29
2022-09-06T03:05:12.567Z,76.70
2022-09-06T03:07:38.960Z,77.27
2022-09-06T03:10:05.326Z,76.70
2022-09-06T03:12:31.715Z,77.22
2022-09-06T03:14:58.116Z,77.78
2022-09-06T03:17:24.574Z,78.31
2022-09-06T03:19:51.021Z,78.43
2022-09-06T03:22:17.452Z,78.66
2022-09-06T03:24:43.884Z,78.71
2022-09-06T03:27:10.309Z,79.19
2022-09-06T03:29:36.705Z,79.57
2022-09-06T03:32:03.068Z,80.11
2022-09-06T03:34:29.439Z,80.37
2022-09-06T03:36:55.825Z,80.54
2022-09-06T03:39:22.212Z,80.61
2022-09-06T03:41:48.590Z,80.64
2022-09-06T03:44:14.955Z,80.62
2022-09-06T03:46:41.358Z,80.85
2022-09-06T03:49:07.803Z,80.51
2022-09-06T03:51:34.163Z,80.47
2022-09-06T03:54:00.567Z,80.53
2022-09-06T03:56:26.999Z,80.75
2022-09-06T03:58:53.433Z,81.07
2022-09-06T04:01:19.930Z,80.99
2022-09-06T04:03:46.307Z,81.20
2022-09-06T04:06:12.688Z,81.38
2022-09-06T04:08:39.186Z,81.45
2022-09-06T04:11:05.549Z,80.18
2022-09-06T04:13:31.908Z,79.50
2022-09-06T04:15:58.359Z,78.90
2022-09-06T04:18:24.761Z,77.90
2022-09-06T04:20:51.103Z,77.59
2022-09-06T04:23:17.558Z,77.38
2022-09-06T04:25:43.934Z,76.53
2022-09-06T04:28:10.302Z,76.21
2022-09-06T04:30:36.685Z,75.66
2022-09-06T04:33:03.057Z,75.22
2022-09-06T04:35:29.518Z,73.63
2022-09-06T04:37:55.886Z,72.62
2022-09-06T04:40:22.251Z,72.35
2022-09-06T04:42:48.628Z,71.39
2022-09-06T04:45:14.987Z,70.41
2022-09-06T04:47:41.371Z,70.08
2022-09-06T04:50:07.769Z,69.80
2022-09-06T04:52:34.135Z,68.98
2022-09-06T04:55:00.518Z,69.06
2022-09-06T04:57:26.886Z,68.62
2022-09-06T04:59:53.265Z,68.33
2022-09-06T05:02:19.690Z,67.69
2022-09-06T05:04:46.014Z,67.09
2022-09-06T05:07:12.429Z,66.92
2022-09-06T05:09:38.772Z,66.26
2022-09-06T05:12:05.302Z,66.29
2022-09-06T05:14:31.663Z,66.48
2022-09-06T05:16:58.177Z,65.97
2022-09-06T05:19:24.498Z,65.49
2022-09-06T05:21:50.862Z,65.41
2022-09-06T05:24:17.227Z,64.96
2022-09-06T05:26:43.594Z,64.21
2022-09-06T05:29:10.003Z,63.63
2022-09-06T05:31:36.406Z,64.09
2022-09-06T05:34:02.782Z,64.20
2022-09-06T05:36:29.161Z,63.17
2022-09-06T05:38:55.522Z,62.76
2022-09-06T05:41:21.897Z,61.19
2022-09-06T05:43:48.315Z,60.97
2022-09-06T05:46:14.724Z,59.90
2022-09-06T05:48:41.159Z,59.94
2022-09-06T05:51:07.524Z,59.98
2022-09-06T05:53:33.886Z,60.66
2022-09-06T05:56:00.257Z,60.68
2022-09-06T05:58:26.640Z,59.96
2022-09-06T06:00:53.073Z,60.06
2022-09-06T06:03:19.407Z,60.92
2022-09-06T06:05:45.777Z,58.47
2022-09-06T06:08:12.200Z,57.82
2022-09-06T06:10:38.817Z,57.31
2022-09-06T06:13:05.049Z,57.07
2022-09-06T06:15:31.539Z,57.08
2022-09-06T06:17:57.897Z,55.67
2022-09-06T06:20:24.299Z,55.68
2022-09-06T06:22:50.678Z,56.41
2022-09-06T06:25:17.040Z,56.64
2022-09-06T06:27:43.411Z,56.59
2022-09-06T06:30:09.827Z,55.95
2022-09-06T06:32:36.223Z,54.58
2022-09-06T06:35:02.697Z,53.47
2022-09-06T06:37:29.091Z,52.50
2022-09-06T06:39:55.511Z,51.96
2022-09-06T06:42:21.869Z,51.81
2022-09-06T06:44:48.322Z,51.33
2022-09-06T06:47:14.720Z,51.93
2022-09-06T06:49:41.186Z,51.93
2022-09-06T06:52:07.545Z,53.04
2022-09-06T06:54:33.922Z,52.22
2022-09-06T06:57:00.310Z,51.29
2022-09-06T06:59:26.756Z,50.36
2022-09-06T07:01:53.389Z,50.90
2022-09-06T07:04:19.525Z,49.72
2022-09-06T07:09:12.309Z,47.87
2022-09-06T07:11:38.677Z,47.87
2022-09-06T07:14:05.047Z,47.56
2022-09-06T07:16:31.507Z,46.49
2022-09-06T07:18:57.822Z,45.83
2022-09-06T07:21:39.645Z,45.43
2022-09-06T07:24:06.805Z,45.38
2022-09-06T07:26:17.068Z,45.15
2022-09-06T07:28:43.580Z,45.71
2022-09-06T07:33:36.177Z,44.53
2022-09-06T07:36:02.566Z,44.36
2022-09-06T07:38:28.949Z,43.40
2022-09-06T07:40:55.339Z,42.34
2022-09-06T07:43:21.787Z,41.17
2022-09-06T07:45:48.132Z,40.67
2022-09-06T07:48:14.500Z,40.95
2022-09-06T07:50:49.081Z,40.91
2022-09-06T07:53:08.335Z,41.01
2022-09-06T07:55:33.663Z,41.22
2022-09-06T07:58:00.036Z,42.69
2022-09-06T08:00:26.409Z,43.58
2022-09-06T08:02:52.765Z,43.59
2022-09-06T08:07:45.574Z,43.42
2022-09-06T08:10:13.156Z,42.00
2022-09-06T08:12:38.323Z,41.31
2022-09-06T08:15:04.731Z,41.10
2022-09-06T08:17:31.092Z,41.52
2022-09-06T08:19:57.465Z,42.05
2022-09-06T08:22:23.889Z,42.21
2022-09-06T08:24:50.329Z,41.81
2022-09-06T08:27:16.691Z,40.56
2022-09-06T08:29:43.100Z,40.21
2022-09-06T08:32:09.486Z,39.59
2022-09-06T08:34:35.862Z,39.29
2022-09-06T08:37:02.255Z,40.19
2022-09-06T08:39:28.675Z,39.74
2022-09-06T08:41:55.037Z,39.82
2022-09-06T08:46:48.004Z,40.46
2022-09-06T08:49:14.366Z,39.61
2022-09-06T08:51:40.735Z,38.62
2022-09-06T08:54:07.105Z,37.85
2022-09-06T08:56:33.481Z,36.90
2022-09-06T08:58:59.876Z,35.74
2022-09-06T09:01:26.320Z,37.01
2022-09-06T09:03:52.705Z,36.74
2022-09-06T09:06:19.091Z,37.26
2022-09-06T09:08:45.481Z,36.15
2022-09-06T09:11:11.863Z,36.56
2022-09-06T09:13:38.237Z,37.00
2022-09-06T09:16:04.667Z,36.49
2022-09-06T09:18:31.008Z,35.67
2022-09-06T09:20:57.390Z,35.03
2022-09-06T09:23:23.807Z,33.87
2022-09-06T09:25:50.187Z,34.15
2022-09-06T09:28:16.551Z,35.03
2022-09-06T09:33:09.402Z,34.77
2022-09-06T09:35:35.789Z,35.37
2022-09-06T09:38:07.853Z,34.08
2022-09-06T09:40:28.530Z,33.49
2022-09-06T09:42:54.904Z,33.49
2022-09-06T09:45:21.269Z,33.09
2022-09-06T09:47:47.729Z,33.03
2022-09-06T09:50:14.127Z,33.69
2022-09-06T09:52:40.462Z,33.69
2022-09-06T09:55:06.826Z,34.08
2022-09-06T09:57:33.196Z,34.01
2022-09-06T09:59:59.581Z,33.16
2022-09-06T10:02:25.945Z,33.66
2022-09-06T10:04:52.313Z,32.58
2022-09-06T10:07:18.720Z,33.01
2022-09-06T10:09:45.098Z,31.53
2022-09-06T10:12:11.553Z,31.87
2022-09-06T10:14:37.941Z,30.23
2022-09-06T10:17:04.329Z,29.81
2022-09-06T10:19:30.713Z,30.01
2022-09-06T10:21:57.168Z,30.76
2022-09-06T10:24:26.889Z,30.27
2022-09-06T10:26:50.046Z,30.23
2022-09-06T10:29:16.475Z,29.59
2022-09-06T10:31:42.990Z,29.22
2022-09-06T10:34:09.267Z,30.44
2022-09-06T10:36:35.633Z,31.15
2022-09-06T10:39:04.124Z,30.92
2022-09-06T10:41:28.389Z,31.15
2022-09-06T10:43:54.870Z,30.74
2022-09-06T10:46:21.273Z,29.78
2022-09-06T10:48:47.734Z,28.47
2022-09-06T10:51:14.093Z,28.15
2022-09-06T10:53:40.503Z,26.01
2022-09-06T10:56:06.932Z,26.32
2022-09-06T11:00:59.675Z,26.58
2022-09-06T11:05:52.421Z,27.47
2022-09-06T11:08:49.676Z,27.42
2022-09-06T11:10:45.224Z,27.80
2022-09-06T11:13:11.584Z,27.77
2022-09-06T11:15:37.977Z,27.40
2022-09-06T11:18:04.338Z,28.04
2022-09-06T11:20:32.332Z,27.57
2022-09-06T11:22:57.136Z,26.91
2022-09-06T11:25:23.768Z,26.74
2022-09-06T11:27:50.123Z,26.68
2022-09-06T11:30:16.585Z,25.96
2022-09-06T11:32:42.943Z,25.48
2022-09-06T11:35:09.342Z,25.22
2022-09-06T11:37:35.727Z,25.55
2022-09-06T11:42:28.646Z,26.47
2022-09-06T11:44:55.080Z,26.07
2022-09-06T11:47:21.479Z,26.88
2022-09-06T11:49:47.875Z,26.56
2022-09-06T11:52:14.239Z,26.37
2022-09-06T11:54:40.710Z,26.55
2022-09-06T11:57:07.077Z,26.98
2022-09-06T11:59:33.474Z,26.99
2022-09-06T12:01:59.882Z,27.32
2022-09-06T12:04:26.255Z,27.01
2022-09-06T12:06:52.642Z,27.73
2022-09-06T12:09:19.032Z,28.07
2022-09-06T12:11:45.409Z,28.87
2022-09-06T12:14:11.837Z,29.18
2022-09-06T12:16:38.238Z,29.57
2022-09-06T12:19:04.693Z,29.20
2022-09-06T12:21:31.087Z,29.09
2022-09-06T12:23:57.458Z,29.18
2022-09-06T12:26:23.819Z,29.85
2022-09-06T12:28:50.195Z,29.41
2022-09-06T12:31:18.376Z,29.68
2022-09-06T12:33:43.025Z,29.32
2022-09-06T12:36:09.389Z,29.47
2022-09-06T12:38:35.819Z,29.42
2022-09-06T12:41:02.183Z,30.06
2022-09-06T12:43:28.655Z,29.10
2022-09-06T12:45:55.038Z,29.75
2022-09-06T12:48:21.423Z,30.55
2022-09-06T12:50:47.780Z,30.90
2022-09-06T12:53:15.918Z,31.73
2022-09-06T12:55:40.676Z,31.53
2022-09-06T12:58:07.070Z,32.15
2022-09-06T13:00:33.632Z,33.26
2022-09-06T13:03:00.137Z,33.15
2022-09-06T13:05:26.394Z,33.48
2022-09-06T13:07:52.883Z,33.55
2022-09-06T13:10:19.261Z,33.56
2022-09-06T13:12:45.630Z,33.33
2022-09-06T13:15:11.992Z,33.57
2022-09-06T13:17:38.385Z,33.42
2022-09-06T13:20:04.779Z,33.72
2022-09-06T13:22:31.176Z,33.94
2022-09-06T13:24:57.610Z,34.13
2022-09-06T13:27:24.068Z,34.13
2022-09-06T13:29:50.383Z,34.42
2022-09-06T13:32:16.763Z,35.16
2022-09-06T13:34:43.236Z,34.67
2022-09-06T13:37:09.671Z,34.93
2022-09-06T13:39:36.088Z,34.02
2022-09-06T13:42:02.439Z,34.52
2022-09-06T13:44:28.835Z,35.24
2022-09-06T13:46:55.314Z,34.78
2022-09-06T13:49:21.664Z,35.10
2022-09-06T13:51:48.036Z,34.79
2022-09-06T13:54:14.424Z,34.53
2022-09-06T13:56:40.809Z,34.94
2022-09-06T13:59:07.184Z,35.49
2022-09-06T14:01:33.656Z,35.63
2022-09-06T14:04:00.024Z,35.61
2022-09-06T14:06:26.458Z,34.99
2022-09-06T14:09:08.844Z,35.34
2022-09-06T14:11:19.231Z,36.75
2022-09-06T14:13:45.610Z,37.32
2022-09-06T14:16:12.077Z,37.30
2022-09-06T14:18:38.345Z,37.49
2022-09-06T14:21:04.751Z,37.75
2022-09-06T14:23:31.260Z,37.58
2022-09-06T14:25:57.619Z,37.85
2022-09-06T14:28:24.255Z,38.40
2022-09-06T14:30:50.646Z,38.22
2022-09-06T14:33:16.962Z,38.77
2022-09-06T14:35:43.451Z,38.76
2022-09-06T14:38:09.830Z,39.05
2022-09-06T14:40:36.224Z,39.10
2022-09-06T14:43:02.645Z,39.32
2022-09-06T14:45:29.087Z,39.18
2022-09-06T14:47:55.442Z,39.60
2022-09-06T14:50:21.846Z,39.79
2022-09-06T14:52:48.257Z,40.22
2022-09-06T14:55:14.633Z,40.39
2022-09-06T14:57:40.995Z,40.48
2022-09-06T15:00:07.407Z,40.57
2022-09-06T15:02:33.836Z,40.88
2022-09-06T15:05:00.237Z,40.90
2022-09-06T15:07:26.663Z,40.86
2022-09-06T15:09:53.129Z,41.13
2022-09-06T15:12:19.529Z,41.85
2022-09-06T15:14:45.909Z,42.53
2022-09-06T15:17:12.277Z,42.99
2022-09-06T15:19:38.687Z,43.34
2022-09-06T15:22:05.062Z,43.87
2022-09-06T15:24:31.436Z,44.41
2022-09-06T15:26:57.817Z,44.39
2022-09-06T15:29:24.185Z,44.23
2022-09-06T15:31:50.619Z,44.04
2022-09-06T15:34:16.959Z,43.97
2022-09-06T15:36:43.315Z,44.28
2022-09-06T15:39:09.682Z,44.32
2022-09-06T15:41:36.079Z,44.83
2022-09-06T15:44:02.560Z,44.89
2022-09-06T15:46:28.998Z,44.64
2022-09-06T15:48:55.419Z,45.67
2022-09-06T15:51:21.783Z,45.89
2022-09-06T15:53:48.153Z,46.08
2022-09-06T15:56:14.571Z,46.34
2022-09-06T15:58:41.040Z,46.71
2022-09-06T16:01:07.499Z,46.55
2022-09-06T16:03:33.809Z,47.27
2022-09-06T16:08:26.603Z,48.41
2022-09-06T16:10:53.108Z,48.64
2022-09-06T16:13:19.474Z,48.80
2022-09-06T16:15:45.862Z,49.02
2022-09-06T16:18:12.233Z,49.66
2022-09-06T16:20:38.621Z,49.68
2022-09-06T16:23:05.070Z,49.65
2022-09-06T16:25:31.431Z,49.86
2022-09-06T16:27:57.834Z,49.92
2022-09-06T16:30:24.212Z,50.34
2022-09-06T16:32:50.577Z,50.43
2022-09-06T16:35:16.967Z,50.36
2022-09-06T16:37:43.335Z,50.43
2022-09-06T16:40:09.867Z,50.90
2022-09-06T16:42:36.194Z,51.01
2022-09-06T16:45:02.668Z,51.04
2022-09-06T16:47:29.034Z,51.20
2022-09-06T16:49:55.404Z,51.42
2022-09-06T16:52:21.866Z,51.93
2022-09-06T16:54:48.289Z,51.80
2022-09-06T16:57:14.731Z,51.77
2022-09-06T16:59:41.107Z,52.03
2022-09-06T17:02:07.517Z,52.11
2022-09-06T17:04:33.850Z,52.23
2022-09-06T17:07:00.355Z,52.64
2022-09-06T17:09:26.712Z,52.66
2022-09-06T17:11:53.081Z,52.25
2022-09-06T17:14:19.483Z,52.61
2022-09-06T17:16:45.899Z,52.65
2022-09-06T17:19:12.312Z,52.99
2022-09-06T17:21:38.698Z,52.73
2022-09-06T17:24:05.066Z,52.91
2022-09-06T17:26:31.439Z,53.98
2022-09-06T17:28:57.803Z,54.37
2022-09-06T17:31:26.003Z,54.17
2022-09-06T17:33:50.587Z,54.49
2022-09-06T17:36:17.042Z,54.50
2022-09-06T17:38:43.400Z,54.67
2022-09-06T17:41:09.906Z,53.93
2022-09-06T17:43:36.328Z,54.37
2022-09-06T17:46:02.807Z,55.25
2022-09-06T17:48:29.282Z,55.40
2022-09-06T17:50:55.629Z,56.15
2022-09-06T17:53:22.049Z,56.28
2022-09-06T17:55:48.506Z,55.84
2022-09-06T17:58:14.864Z,56.56
2022-09-06T18:00:41.234Z,56.72
2022-09-06T18:03:07.624Z,56.51
2022-09-06T18:05:34.129Z,56.46
2022-09-06T18:08:00.516Z,56.46
2022-09-06T18:10:27.000Z,56.59
2022-09-06T18:12:53.383Z,56.72
2022-09-06T18:15:19.865Z,56.47
2022-09-06T18:17:46.229Z,56.54
2022-09-06T18:20:12.623Z,56.40
2022-09-06T18:22:39.064Z,56.42
2022-09-06T18:25:05.493Z,56.21
2022-09-06T18:27:31.860Z,55.94
2022-09-06T18:29:58.256Z,55.82
2022-09-06T18:32:24.841Z,55.97
2022-09-06T18:34:51.511Z,55.95
2022-09-06T18:37:17.966Z,56.28
2022-09-06T18:39:44.397Z,56.36
2022-09-06T18:42:10.874Z,55.43
2022-09-06T18:44:37.238Z,56.57
2022-09-06T18:47:03.868Z,56.33
2022-09-06T18:49:30.388Z,57.29
2022-09-06T18:51:56.903Z,56.75
2022-09-06T18:54:23.577Z,56.34
2022-09-06T18:56:50.174Z,56.56
2022-09-06T18:59:16.755Z,56.78
2022-09-06T19:01:45.825Z,56.63
2022-09-06T19:04:10.028Z,56.97
2022-09-06T19:06:36.700Z,57.46
2022-09-06T19:09:03.302Z,57.29
2022-09-06T19:11:29.955Z,57.85
2022-09-06T19:13:56.583Z,58.61
2022-09-06T19:16:23.341Z,58.62
2022-09-06T19:18:49.853Z,58.95
2022-09-06T19:21:17.539Z,58.87
2022-09-06T19:23:43.057Z,59.05
2022-09-06T19:26:09.663Z,58.85
2022-09-06T19:28:35.991Z,58.68
2022-09-06T19:31:02.611Z,58.94
2022-09-06T19:33:31.968Z,58.94
2022-09-06T19:36:10.355Z,58.89
2022-09-06T19:38:22.238Z,58.74
2022-09-06T19:40:48.728Z,58.36
2022-09-06T19:43:15.095Z,58.45
2022-09-06T19:45:41.582Z,58.71
2022-09-06T19:48:08.009Z,58.79
2022-09-06T19:50:34.388Z,58.82
2022-09-06T19:53:04.168Z,58.73
2022-09-06T19:55:27.213Z,59.28
2022-09-06T19:57:53.581Z,59.35
2022-09-06T20:00:20.064Z,59.56
2022-09-06T20:02:46.511Z,59.74
2022-09-06T20:05:12.936Z,60.24
2022-09-06T20:07:39.369Z,60.46
2022-09-06T20:10:05.733Z,60.45
2022-09-06T20:12:32.135Z,60.53
2022-09-06T20:14:58.518Z,60.62
2022-09-06T20:17:34.141Z,61.04
2022-09-06T20:19:51.298Z,61.22
2022-09-06T20:22:17.660Z,61.41
2022-09-06T20:24:44.026Z,61.51
2022-09-06T20:27:10.532Z,61.83
2022-09-06T20:29:36.896Z,62.19
2022-09-06T20:32:03.323Z,62.38
2022-09-06T20:34:29.675Z,62.66
2022-09-06T20:36:56.050Z,62.76
2022-09-06T20:39:22.421Z,63.22
2022-09-06T20:41:48.788Z,63.73
2022-09-06T20:44:15.180Z,63.84
2022-09-06T20:46:41.635Z,64.59
2022-09-06T21:02:04.458Z,67.23
2022-09-06T21:04:30.804Z,68.07
2022-09-06T21:06:57.283Z,68.48
2022-09-06T21:09:23.713Z,68.53
2022-09-06T21:11:50.078Z,68.69
2022-09-06T21:14:16.458Z,69.07
2022-09-06T21:16:42.899Z,69.45
2022-09-06T21:19:09.187Z,69.53
2022-09-06T21:21:35.566Z,69.49
2022-09-06T21:24:01.971Z,70.24
2022-09-06T21:26:28.433Z,69.86
2022-09-06T21:28:54.795Z,70.23
2022-09-06T21:31:21.249Z,70.80
2022-09-06T21:33:47.594Z,70.71
2022-09-06T21:36:13.982Z,70.40
2022-09-06T21:38:40.342Z,70.62
2022-09-06T21:41:06.719Z,71.21
2022-09-06T21:43:33.166Z,71.97
2022-09-06T21:45:59.559Z,72.54
2022-09-06T21:48:25.961Z,72.60
2022-09-06T21:50:52.320Z,72.31
2022-09-06T21:53:18.684Z,73.09
2022-09-06T21:55:45.057Z,72.68
2022-09-06T21:58:11.489Z,73.04
2022-09-06T22:00:37.901Z,72.74
2022-09-06T22:03:04.192Z,72.97
2022-09-06T22:05:30.654Z,73.05
2022-09-06T22:07:57.010Z,73.33
2022-09-06T22:10:23.396Z,73.33
2022-09-06T22:12:49.774Z,73.16
2022-09-06T22:15:16.177Z,73.72
2022-09-06T22:17:42.557Z,73.70
2022-09-06T22:20:08.922Z,73.84
2022-09-06T22:22:35.322Z,73.91
2022-09-06T22:25:01.692Z,74.26
2022-09-06T22:27:28.055Z,73.95
2022-09-06T22:29:54.446Z,73.51
2022-09-06T22:32:20.904Z,72.99
2022-09-06T22:34:47.305Z,73.06
2022-09-06T22:37:13.682Z,72.99
2022-09-06T22:39:40.147Z,73.26
2022-09-06T22:42:06.452Z,73.36
2022-09-06T22:44:32.817Z,73.89
2022-09-06T22:46:59.279Z,74.00
2022-09-06T22:49:25.631Z,74.24
2022-09-06T22:51:51.984Z,74.44
2022-09-06T22:54:18.353Z,74.46
2022-09-06T22:56:44.827Z,74.78
2022-09-06T22:59:11.199Z,74.39
2022-09-06T23:01:37.596Z,74.62
2022-09-06T23:04:04.028Z,74.81
2022-09-06T23:06:30.408Z,74.77
2022-09-06T23:08:56.802Z,74.66
2022-09-06T23:11:23.217Z,74.34
2022-09-06T23:13:49.601Z,74.88
2022-09-06T23:16:16.119Z,74.51
2022-09-06T23:18:42.448Z,74.35
2022-09-06T23:21:08.848Z,74.15
2022-09-06T23:23:35.245Z,73.85
2022-09-06T23:26:01.582Z,73.58
2022-09-06T23:28:28.060Z,73.99
2022-09-06T23:30:54.478Z,74.37
2022-09-06T23:33:20.837Z,74.41
2022-09-06T23:35:47.203Z,74.51
2022-09-06T23:38:13.674Z,73.94
2022-09-06T23:40:40.037Z,74.37
2022-09-06T23:43:06.441Z,74.13
2022-09-06T23:45:32.800Z,74.54
2022-09-06T23:47:59.218Z,74.11
2022-09-06T23:50:25.582Z,73.83
2022-09-06T23:52:51.949Z,73.63
2022-09-06T23:55:18.397Z,72.99
2022-09-06T23:57:44.781Z,72.84
